Peter R. Cresswell — VCBZ — position and weather

sailwx.info

Track history (hours):
 
Tides and Currents Weather Stations Pressure Air Temp Water Temp Dewpoint Dewpoint Depression Visibility Wind Speed Wind Dir Waves Ship Positions

Peter R. Cresswell

ex Algowest

Last reported at 2014-Oct-21 20:29 UTC. Time now 2014-Oct-24 18:58 UTC.
Position N 42°35' W 079°44'.

Length 219.2 m; beam 23.2 m; draft 8.7 m.

Type: Ship. MMSI: 316001697.

Date/timePositionNaut miles runAvg speedWind from/ knotsBaromVisibWave heightAir tempDewpointWater temp
2014-Oct-21 20:29N 42°35' W 079°44'1010.7
2014-Oct-21 19:32N 42°29' W 079°55'19 0.4
2014-Oct-19 16:08N 42°25' W 080°20'711.5
2014-Oct-19 15:33N 42°28' W 080°12'11 9.6
2014-Oct-19 14:26N 42°35' W 080°01'1011.0
2014-Oct-19 13:33N 42°44' W 080°06'4 4.5
2014-Oct-19 12:33N 42°48' W 080°03'0 0.0
2014-Oct-19 11:33N 42°48' W 080°03'0 0.0
2014-Oct-19 10:33N 42°48' W 080°03'0 0.0
2014-Oct-19 03:29N 42°48' W 080°03'0 0.0
2014-Oct-19 01:16N 42°48' W 080°03'0 0.0
2014-Oct-18 21:03N 42°48' W 080°03'0 0.0
2014-Oct-18 07:03N 42°48' W 080°03'0 0.0
2014-Oct-18 06:12N 42°48' W 080°03'0 0.0
2014-Oct-18 05:32N 42°48' W 080°03'0 0.0
2014-Oct-18 04:28N 42°48' W 080°03'0 0.0
2014-Oct-18 03:33N 42°48' W 080°03'0 0.0
2014-Oct-18 02:33N 42°48' W 080°03'0 0.0
2014-Oct-18 01:33N 42°48' W 080°03'0 0.0
2014-Oct-18 00:33N 42°48' W 080°03'0 0.0
2014-Oct-17 23:32N 42°48' W 080°03'2 2.3
2014-Oct-17 22:33N 42°46' W 080°04'9 9.3
2014-Oct-17 21:33N 42°37' W 080°02'9 8.8
2014-Oct-17 20:32N 42°28' W 080°06'8 0.7
2014-Oct-17 10:04N 42°27' W 080°16'610.3
2014-Oct-17 09:28N 42°29' W 080°08'910.3
2014-Oct-17 08:33N 42°33' W 079°57'73 4.0
2014-Oct-16 14:00N 43°30' W 078°54'64 1.4 240 / 141004.4 14.114.014.3
2014-Oct-14 16:33N 42°36' W 079°41'1311.9
2014-Oct-14 15:30N 42°28' W 079°55'10710.2
2014-Oct-14 05:00N 41°54' W 082°12'   150 / 211009.8 19.216.916.4
Track history (hours):
 
Tides and Currents Weather Stations Pressure Air Temp Water Temp Dewpoint Dewpoint Depression Visibility Wind Speed Wind Dir Waves Ship Positions

Peter R. Cresswell

ex Algowest

Last reported at 2014-Oct-21 20:29 UTC. Time now 2014-Oct-24 18:58 UTC.
Position N 42°35' W 079°44'.

Length 219.2 m; beam 23.2 m; draft 8.7 m.

Type: Ship. MMSI: 316001697.

Date/timePositionNaut miles runAvg speedWind from/ knotsBaromVisibWave heightAir tempDewpointWater temp
2014-Oct-21 20:29N 42°35' W 079°44'1010.7
2014-Oct-21 19:32N 42°29' W 079°55'19 0.4
2014-Oct-19 16:08N 42°25' W 080°20'711.5
2014-Oct-19 15:33N 42°28' W 080°12'11 9.6
2014-Oct-19 14:26N 42°35' W 080°01'1011.0
2014-Oct-19 13:33N 42°44' W 080°06'4 4.5
2014-Oct-19 12:33N 42°48' W 080°03'0 0.0
2014-Oct-19 11:33N 42°48' W 080°03'0 0.0
2014-Oct-19 10:33N 42°48' W 080°03'0 0.0
2014-Oct-19 03:29N 42°48' W 080°03'0 0.0
2014-Oct-19 01:16N 42°48' W 080°03'0 0.0
2014-Oct-18 21:03N 42°48' W 080°03'0 0.0
2014-Oct-18 07:03N 42°48' W 080°03'0 0.0
2014-Oct-18 06:12N 42°48' W 080°03'0 0.0
2014-Oct-18 05:32N 42°48' W 080°03'0 0.0
2014-Oct-18 04:28N 42°48' W 080°03'0 0.0
2014-Oct-18 03:33N 42°48' W 080°03'0 0.0
2014-Oct-18 02:33N 42°48' W 080°03'0 0.0
2014-Oct-18 01:33N 42°48' W 080°03'0 0.0
2014-Oct-18 00:33N 42°48' W 080°03'0 0.0
2014-Oct-17 23:32N 42°48' W 080°03'2 2.3
2014-Oct-17 22:33N 42°46' W 080°04'9 9.3
2014-Oct-17 21:33N 42°37' W 080°02'9 8.8
2014-Oct-17 20:32N 42°28' W 080°06'8 0.7
2014-Oct-17 10:04N 42°27' W 080°16'610.3
2014-Oct-17 09:28N 42°29' W 080°08'910.3
2014-Oct-17 08:33N 42°33' W 079°57'73 4.0
2014-Oct-16 14:00N 43°30' W 078°54'64 1.4 240 / 141004.4 14.114.014.3
2014-Oct-14 16:33N 42°36' W 079°41'1311.9
2014-Oct-14 15:30N 42°28' W 079°55'10710.2
2014-Oct-14 05:00N 41°54' W 082°12'   150 / 211009.8 19.216.916.4

Dump ship's entire track history